Fair Grove, Missouri
Current Conditions -  °F | °C
As of 10:52 AM on Friday 21 Nov 2014 (Local Time) from KSGF Reporting Station
Overcast Overcast  
Wind Chill: 42°   Ceiling: 1800
Heat Index: 48°   Visibility: 10mi
Dew Point: 30°   Wind: 17mph
Humidity: 50%   Direction: 150°SSE
Pressure: 30.22"   Gusts: NA
Location:  37.38°N, 93.15°W
Report Text: KSGF 211652Z 15015KT 10SM OVC018 09/M01 A3022 RMK AO2 SLP240 T00891011
Loading
Personal Weather Stations






























Interactive Weather Map New forecast layout! Learn more

10-Day Weather Forecast

Advertisements
Track Severe Weather on mobile